createdAt,value
2018-06-13T00:01:26.518Z,50.93
2018-06-13T00:03:54.209Z,50.08
2018-06-13T00:06:21.774Z,50.43
2018-06-13T00:08:49.290Z,51.06
2018-06-13T00:11:16.810Z,50.19
2018-06-13T00:13:44.377Z,50.65
2018-06-13T00:16:11.889Z,50.82
2018-06-13T00:18:39.443Z,50.66
2018-06-13T00:21:06.963Z,51.09
2018-06-13T00:23:34.477Z,50.48
2018-06-13T00:26:02.079Z,49.97
2018-06-13T00:28:29.588Z,50.55
2018-06-13T00:30:57.153Z,51.10
2018-06-13T00:33:24.666Z,51.08
2018-06-13T00:35:52.198Z,51.79
2018-06-13T00:38:19.762Z,52.15
2018-06-13T00:40:47.279Z,51.69
2018-06-13T00:43:14.836Z,51.12
2018-06-13T00:45:42.351Z,51.52
2018-06-13T00:48:09.870Z,51.63
2018-06-13T00:50:37.409Z,52.28
2018-06-13T00:53:05.102Z,52.12
2018-06-13T00:55:32.734Z,52.06
2018-06-13T00:58:00.283Z,52.91
2018-06-13T01:00:27.806Z,52.94
2018-06-13T01:02:55.351Z,52.57
2018-06-13T01:05:22.866Z,52.55
2018-06-13T01:07:50.425Z,53.06
2018-06-13T01:10:17.942Z,52.49
2018-06-13T01:12:45.461Z,53.16
2018-06-13T01:15:13.022Z,53.33
2018-06-13T01:17:40.545Z,52.66
2018-06-13T01:20:08.253Z,53.03
2018-06-13T01:22:35.770Z,52.57
2018-06-13T01:25:03.371Z,53.11
2018-06-13T01:27:30.910Z,53.08
2018-06-13T01:29:58.430Z,53.04
2018-06-13T01:32:25.982Z,53.18
2018-06-13T01:34:53.521Z,53.36
2018-06-13T01:37:21.030Z,53.39
2018-06-13T01:39:48.569Z,53.40
2018-06-13T01:42:16.090Z,53.83
2018-06-13T01:44:43.650Z,53.23
2018-06-13T01:47:11.170Z,53.72
2018-06-13T01:49:38.733Z,53.66
2018-06-13T01:52:06.843Z,53.78
2018-06-13T01:54:34.853Z,53.77
2018-06-13T01:57:02.420Z,53.48
2018-06-13T01:59:29.937Z,53.57
2018-06-13T02:01:57.510Z,53.05
2018-06-13T02:04:25.057Z,53.79
2018-06-13T02:06:52.593Z,53.23
2018-06-13T02:09:20.139Z,53.10
2018-06-13T02:11:47.656Z,53.00
2018-06-13T02:14:15.174Z,53.70
2018-06-13T02:16:42.698Z,53.37
2018-06-13T02:19:10.210Z,53.52
2018-06-13T02:21:37.788Z,53.39
2018-06-13T02:24:05.395Z,53.08
2018-06-13T02:26:32.919Z,53.41
2018-06-13T02:29:00.475Z,52.51
2018-06-13T02:31:27.986Z,52.38
2018-06-13T02:33:55.546Z,53.41
2018-06-13T02:36:23.068Z,53.61
2018-06-13T02:38:50.606Z,54.35
2018-06-13T02:41:18.254Z,54.18
2018-06-13T02:43:45.765Z,54.41
2018-06-13T02:46:13.298Z,55.00
2018-06-13T02:48:40.826Z,54.72
2018-06-13T02:51:08.377Z,54.37
2018-06-13T02:53:36.125Z,54.65
2018-06-13T02:56:03.662Z,55.11
2018-06-13T02:58:31.214Z,55.08
2018-06-13T03:00:58.755Z,54.57
2018-06-13T03:03:26.294Z,54.00
2018-06-13T03:05:53.845Z,54.75
2018-06-13T03:08:21.374Z,54.59
2018-06-13T03:10:48.929Z,54.39
2018-06-13T03:13:16.495Z,54.75
2018-06-13T03:15:44.015Z,54.69
2018-06-13T03:18:11.618Z,54.65
2018-06-13T03:20:39.189Z,54.12
2018-06-13T03:23:06.749Z,53.71
2018-06-13T03:25:34.253Z,54.67
2018-06-13T03:28:01.791Z,53.89
2018-06-13T03:30:29.335Z,53.53
2018-06-13T03:32:56.862Z,53.41
2018-06-13T03:35:24.410Z,53.88
2018-06-13T03:37:52.002Z,53.51
2018-06-13T03:40:19.535Z,52.67
2018-06-13T03:42:47.069Z,52.53
2018-06-13T03:45:14.634Z,52.59
2018-06-13T03:47:42.196Z,52.71
2018-06-13T03:50:09.722Z,52.23
2018-06-13T03:52:37.247Z,53.28
2018-06-13T03:55:04.870Z,53.35
2018-06-13T03:57:32.433Z,53.44
2018-06-13T03:59:59.959Z,53.26
2018-06-13T04:02:27.511Z,54.26
2018-06-13T04:04:55.031Z,52.62
2018-06-13T04:07:22.555Z,52.52
2018-06-13T04:09:50.098Z,53.06
2018-06-13T04:12:17.622Z,53.65
2018-06-13T04:14:45.230Z,53.85
2018-06-13T04:17:12.742Z,54.02
2018-06-13T04:19:40.261Z,54.49
2018-06-13T04:22:07.902Z,53.40
2018-06-13T04:24:35.422Z,53.49
2018-06-13T04:27:02.982Z,53.43
2018-06-13T04:29:30.531Z,52.45
2018-06-13T04:31:58.075Z,53.59
2018-06-13T04:34:25.638Z,53.51
2018-06-13T04:36:53.178Z,53.14
2018-06-13T04:39:20.730Z,53.82
2018-06-13T04:41:48.262Z,52.92
2018-06-13T04:44:15.794Z,53.27
2018-06-13T04:46:43.351Z,53.29
2018-06-13T04:49:10.859Z,54.01
2018-06-13T04:51:38.412Z,54.46
2018-06-13T04:54:05.970Z,55.03
2018-06-13T04:56:33.503Z,54.34
2018-06-13T04:59:01.050Z,53.13
2018-06-13T05:01:28.557Z,53.11
2018-06-13T05:03:56.134Z,53.34
2018-06-13T05:06:23.675Z,52.95
2018-06-13T05:08:51.175Z,53.41
2018-06-13T05:11:18.703Z,52.35
2018-06-13T05:13:46.226Z,52.99
2018-06-13T05:16:13.784Z,53.64
2018-06-13T05:18:41.317Z,53.10
2018-06-13T05:21:08.854Z,53.06
2018-06-13T05:23:36.417Z,53.88
2018-06-13T05:26:03.990Z,54.04
2018-06-13T05:28:31.551Z,53.80
2018-06-13T05:30:59.071Z,54.17
2018-06-13T05:33:26.606Z,53.12
2018-06-13T05:35:54.156Z,53.82
2018-06-13T05:38:21.673Z,53.38
2018-06-13T05:40:49.282Z,53.69
2018-06-13T05:43:16.815Z,52.80
2018-06-13T05:45:44.358Z,53.03
2018-06-13T05:48:11.910Z,52.48
2018-06-13T05:50:39.446Z,52.61
2018-06-13T05:53:07.003Z,54.05
2018-06-13T05:55:34.514Z,53.65
2018-06-13T05:58:02.054Z,52.79
2018-06-13T06:00:29.602Z,52.21
2018-06-13T06:02:57.112Z,52.45
2018-06-13T06:05:24.706Z,53.04
2018-06-13T06:07:52.237Z,51.87
2018-06-13T06:10:19.789Z,52.04
2018-06-13T06:12:47.299Z,52.25
2018-06-13T06:15:14.818Z,52.53
2018-06-13T06:17:42.383Z,51.63
2018-06-13T06:20:09.974Z,52.19
2018-06-13T06:22:37.498Z,52.37
2018-06-13T06:25:05.080Z,52.09
2018-06-13T06:27:32.614Z,52.43
2018-06-13T06:30:00.167Z,52.45
2018-06-13T06:32:27.678Z,51.81
2018-06-13T06:34:55.189Z,51.80
2018-06-13T06:37:23.004Z,50.95
2018-06-13T06:39:50.572Z,51.08
2018-06-13T06:42:18.131Z,50.82
2018-06-13T06:44:45.702Z,51.32
2018-06-13T06:47:13.234Z,50.71
2018-06-13T06:49:40.821Z,51.39
2018-06-13T06:52:08.330Z,51.87
2018-06-13T06:54:35.876Z,51.60
2018-06-13T06:57:03.389Z,51.60
2018-06-13T06:59:30.897Z,50.09
2018-06-13T07:01:58.434Z,50.25
2018-06-13T07:04:25.944Z,49.77
2018-06-13T07:06:53.505Z,48.73
2018-06-13T07:09:21.019Z,47.74
2018-06-13T07:11:48.541Z,48.12
2018-06-13T07:14:16.087Z,47.04
2018-06-13T07:16:43.593Z,47.19
2018-06-13T07:19:11.134Z,47.00
2018-06-13T07:21:38.663Z,46.44
2018-06-13T07:24:06.227Z,46.82
2018-06-13T07:26:33.774Z,46.57
2018-06-13T07:29:01.306Z,46.54
2018-06-13T07:31:28.846Z,46.15
2018-06-13T07:33:56.370Z,45.58
2018-06-13T07:36:23.891Z,45.90
2018-06-13T07:38:51.437Z,47.26
2018-06-13T07:41:18.934Z,45.99
2018-06-13T07:43:46.538Z,44.06
2018-06-13T07:46:14.065Z,44.00
2018-06-13T07:48:41.598Z,44.37
2018-06-13T07:51:09.163Z,44.49
2018-06-13T07:53:36.686Z,43.11
2018-06-13T07:56:04.279Z,44.38
2018-06-13T07:58:31.846Z,45.84
2018-06-13T08:00:59.376Z,46.48
2018-06-13T08:03:26.933Z,47.11
2018-06-13T08:05:54.449Z,47.60
2018-06-13T08:08:21.991Z,47.73
2018-06-13T08:10:49.528Z,48.01
2018-06-13T08:13:17.038Z,47.06
2018-06-13T08:15:45.134Z,46.67
2018-06-13T08:18:12.671Z,48.27
2018-06-13T08:20:40.270Z,47.47
2018-06-13T08:23:07.785Z,46.78
2018-06-13T08:25:35.375Z,47.28
2018-06-13T08:28:03.689Z,43.67
2018-06-13T08:30:31.238Z,44.11
2018-06-13T08:32:58.795Z,44.16
2018-06-13T08:35:26.318Z,43.84
2018-06-13T08:37:53.885Z,44.05
2018-06-13T08:40:21.446Z,44.17
2018-06-13T08:42:48.982Z,45.67
2018-06-13T08:45:16.531Z,46.53
2018-06-13T08:47:44.579Z,47.60
2018-06-13T08:50:12.102Z,46.15
2018-06-13T08:52:39.630Z,47.27
2018-06-13T08:55:07.147Z,45.71
2018-06-13T08:57:34.666Z,46.40
2018-06-13T09:00:02.231Z,45.94
2018-06-13T09:02:29.738Z,46.62
2018-06-13T09:04:57.242Z,46.21
2018-06-13T09:07:24.782Z,46.90
2018-06-13T09:09:52.286Z,45.88
2018-06-13T09:12:19.858Z,45.00
2018-06-13T09:14:47.390Z,45.48
2018-06-13T09:17:14.906Z,45.21
2018-06-13T09:19:42.450Z,44.99
2018-06-13T09:22:10.001Z,44.78
2018-06-13T09:24:37.575Z,43.58
2018-06-13T09:27:05.127Z,43.81
2018-06-13T09:29:32.666Z,43.76
2018-06-13T09:32:00.200Z,45.07
2018-06-13T09:34:27.740Z,43.48
2018-06-13T09:36:55.322Z,44.12
2018-06-13T09:39:22.842Z,43.64
2018-06-13T09:41:55.938Z,44.00
2018-06-13T09:44:23.474Z,43.77
2018-06-13T09:46:50.981Z,44.48
2018-06-13T09:49:18.510Z,44.88
2018-06-13T09:51:46.071Z,44.98
2018-06-13T09:54:13.633Z,44.87
2018-06-13T09:56:41.276Z,44.75
2018-06-13T09:59:13.295Z,44.44
2018-06-13T10:02:18.346Z,45.15
2018-06-13T10:04:46.966Z,44.75
2018-06-13T10:07:14.554Z,44.47
2018-06-13T10:09:42.117Z,43.99
2018-06-13T10:12:09.703Z,43.76
2018-06-13T10:14:37.246Z,44.05
2018-06-13T10:17:04.808Z,44.33
2018-06-13T10:19:32.336Z,45.36
2018-06-13T10:21:59.941Z,45.20
2018-06-13T10:24:27.471Z,45.21
2018-06-13T10:26:54.990Z,44.71
2018-06-13T10:29:29.116Z,45.31
2018-06-13T10:31:56.644Z,45.62
2018-06-13T10:34:24.279Z,45.82
2018-06-13T10:36:51.788Z,44.94
2018-06-13T10:39:19.329Z,44.56
2018-06-13T10:41:46.870Z,44.11
2018-06-13T10:44:14.410Z,44.01
2018-06-13T10:46:42.039Z,43.39
2018-06-13T10:49:09.595Z,41.49
2018-06-13T10:51:37.132Z,41.41
2018-06-13T10:54:04.692Z,40.31
2018-06-13T10:56:32.231Z,40.46
2018-06-13T10:58:59.775Z,40.99
2018-06-13T11:01:27.289Z,41.04
2018-06-13T11:03:54.822Z,41.04
2018-06-13T11:06:22.361Z,39.60
2018-06-13T11:08:49.886Z,39.80
2018-06-13T11:11:17.434Z,40.79
2018-06-13T11:13:44.986Z,39.81
2018-06-13T11:16:12.515Z,40.27
2018-06-13T11:18:40.051Z,41.24
2018-06-13T11:21:07.579Z,42.36
2018-06-13T11:23:35.102Z,42.78
2018-06-13T11:26:02.668Z,42.62
2018-06-13T11:28:30.193Z,43.16
2018-06-13T11:30:57.718Z,42.96
2018-06-13T11:33:25.242Z,43.26
2018-06-13T11:35:52.794Z,43.28
2018-06-13T11:38:20.318Z,43.25
2018-06-13T11:40:47.843Z,43.77
2018-06-13T11:43:15.393Z,43.51
2018-06-13T11:45:42.918Z,43.54
2018-06-13T11:48:10.479Z,44.94
2018-06-13T11:50:37.998Z,46.34
2018-06-13T11:53:05.554Z,45.98
2018-06-13T11:55:33.572Z,46.69
2018-06-13T11:58:01.138Z,46.79
2018-06-13T12:00:28.719Z,47.05
2018-06-13T12:02:56.245Z,47.19
2018-06-13T12:05:23.787Z,47.33
2018-06-13T12:07:51.568Z,47.25
2018-06-13T12:10:19.106Z,46.96
2018-06-13T12:12:46.658Z,46.91
2018-06-13T12:15:14.210Z,46.31
2018-06-13T12:17:41.746Z,47.18
2018-06-13T12:20:09.331Z,46.32
2018-06-13T12:22:36.849Z,45.50
2018-06-13T12:25:04.457Z,46.10
2018-06-13T12:27:31.987Z,46.50
2018-06-13T12:29:59.510Z,45.67
2018-06-13T12:32:27.063Z,45.46
2018-06-13T12:34:54.590Z,45.51
2018-06-13T12:37:22.138Z,44.99
2018-06-13T12:39:49.674Z,45.86
2018-06-13T12:42:17.246Z,45.71
2018-06-13T12:44:44.782Z,44.53
2018-06-13T12:47:12.294Z,44.17
2018-06-13T12:49:39.831Z,43.23
2018-06-13T12:52:07.334Z,42.76
2018-06-13T12:54:34.861Z,42.40
2018-06-13T12:57:02.939Z,41.81
2018-06-13T12:59:30.438Z,41.72
2018-06-13T13:01:57.974Z,43.61
2018-06-13T13:04:25.473Z,42.39
2018-06-13T13:06:53.071Z,40.28
2018-06-13T13:09:20.607Z,39.44
2018-06-13T13:11:48.114Z,39.78
2018-06-13T13:14:15.679Z,40.42
2018-06-13T13:16:43.218Z,42.12
2018-06-13T13:19:10.754Z,43.60
2018-06-13T13:21:38.369Z,45.10
2018-06-13T13:24:05.898Z,45.49
2018-06-13T13:26:33.470Z,45.33
2018-06-13T13:29:01.162Z,45.05
2018-06-13T13:31:28.712Z,45.04
2018-06-13T13:33:56.258Z,45.05
2018-06-13T13:36:23.879Z,45.44
2018-06-13T13:38:51.430Z,44.94
2018-06-13T13:41:18.974Z,44.57
2018-06-13T13:43:46.499Z,44.34
2018-06-13T13:46:14.150Z,44.47
2018-06-13T13:48:41.718Z,44.26
2018-06-13T13:51:09.279Z,45.07
2018-06-13T13:53:36.798Z,45.80
2018-06-13T13:56:04.409Z,45.67
2018-06-13T13:58:31.995Z,45.25
2018-06-13T14:00:59.559Z,44.80
2018-06-13T14:03:27.113Z,44.77
2018-06-13T14:05:54.702Z,44.52
2018-06-13T14:08:22.258Z,45.06
2018-06-13T14:10:49.868Z,45.85
2018-06-13T14:13:17.402Z,45.67
2018-06-13T14:15:45.038Z,46.69
2018-06-13T14:18:12.571Z,46.65
2018-06-13T14:20:40.121Z,46.43
2018-06-13T14:23:07.688Z,46.72
2018-06-13T14:25:35.202Z,46.14
2018-06-13T14:28:02.779Z,47.09
2018-06-13T14:30:30.329Z,47.01
2018-06-13T14:32:57.976Z,47.67
2018-06-13T14:35:25.748Z,46.92
2018-06-13T14:37:53.277Z,47.01
2018-06-13T14:40:20.838Z,46.19
2018-06-13T14:42:48.370Z,45.95
2018-06-13T14:45:15.894Z,46.57
2018-06-13T14:47:43.478Z,46.95
2018-06-13T14:50:11.019Z,47.29
2018-06-13T14:52:38.609Z,46.56
2018-06-13T14:55:06.155Z,46.58
2018-06-13T14:57:33.670Z,46.71
2018-06-13T15:00:01.222Z,46.71
2018-06-13T15:02:28.750Z,46.91
2018-06-13T15:04:56.315Z,46.78
2018-06-13T15:07:23.858Z,47.01
2018-06-13T15:09:51.374Z,46.88
2018-06-13T15:12:18.902Z,47.44
2018-06-13T15:14:46.414Z,48.09
2018-06-13T15:17:13.950Z,47.54
2018-06-13T15:19:41.473Z,48.00
2018-06-13T15:22:09.056Z,48.58
2018-06-13T15:24:36.605Z,47.95
2018-06-13T15:27:04.196Z,48.98
2018-06-13T15:29:31.715Z,48.42
2018-06-13T15:31:59.330Z,48.82
2018-06-13T15:34:26.962Z,49.44
2018-06-13T15:36:54.550Z,49.52
2018-06-13T15:39:22.112Z,49.93
2018-06-13T15:41:49.640Z,50.20
2018-06-13T15:44:17.208Z,49.83
2018-06-13T15:46:44.740Z,50.54
2018-06-13T15:49:12.258Z,50.66
2018-06-13T15:51:39.848Z,51.58
2018-06-13T15:54:08.395Z,51.60
2018-06-13T15:56:36.034Z,51.76
2018-06-13T15:59:03.715Z,51.88
2018-06-13T16:01:31.678Z,51.67
2018-06-13T16:03:59.254Z,52.24
2018-06-13T16:06:26.842Z,52.95
2018-06-13T16:08:54.519Z,53.41
2018-06-13T16:11:22.100Z,53.32
2018-06-13T16:13:49.666Z,53.16
2018-06-13T16:16:17.235Z,53.06
2018-06-13T16:18:44.790Z,53.33
2018-06-13T16:21:12.370Z,53.73
2018-06-13T16:23:39.915Z,53.98
2018-06-13T16:26:07.539Z,54.08
2018-06-13T16:28:35.082Z,54.47
2018-06-13T16:31:02.635Z,54.79
2018-06-13T16:33:30.214Z,55.00
2018-06-13T16:35:57.810Z,55.99
2018-06-13T16:38:25.314Z,56.35
2018-06-13T16:40:52.893Z,56.74
2018-06-13T16:43:20.421Z,56.67
2018-06-13T16:45:47.978Z,56.92
2018-06-13T16:48:15.538Z,56.47
2018-06-13T16:50:54.311Z,55.87
2018-06-13T16:53:33.206Z,56.66
2018-06-13T16:56:01.162Z,56.42
2018-06-13T16:58:28.675Z,57.18
2018-06-13T17:00:56.206Z,57.69
2018-06-13T17:03:23.770Z,58.08
2018-06-13T17:05:51.310Z,58.88
2018-06-13T17:08:18.919Z,59.03
2018-06-13T17:10:46.474Z,59.77
2018-06-13T17:13:14.006Z,60.98
2018-06-13T17:15:41.584Z,60.49
2018-06-13T17:18:09.102Z,60.29
2018-06-13T17:20:36.654Z,60.48
2018-06-13T17:23:04.262Z,60.60
2018-06-13T17:25:31.783Z,60.81
2018-06-13T17:27:59.345Z,61.87
2018-06-13T17:30:26.859Z,61.93
2018-06-13T17:32:54.399Z,61.91
2018-06-13T17:35:21.950Z,61.94
2018-06-13T17:37:49.462Z,63.00
2018-06-13T17:40:18.151Z,63.38
2018-06-13T17:42:45.690Z,63.96
2018-06-13T17:45:13.240Z,63.84
2018-06-13T17:47:40.771Z,63.42
2018-06-13T17:50:08.367Z,63.65
2018-06-13T17:52:35.906Z,64.21
2018-06-13T17:55:03.474Z,63.46
2018-06-13T17:57:31.034Z,64.04
2018-06-13T17:59:58.578Z,64.59
2018-06-13T18:02:26.111Z,64.79
2018-06-13T18:04:53.646Z,65.66
2018-06-13T18:07:21.146Z,64.67
2018-06-13T18:09:48.707Z,65.17
2018-06-13T18:12:16.226Z,65.27
2018-06-13T18:14:43.754Z,65.54
2018-06-13T18:17:11.304Z,65.61
2018-06-13T18:19:38.844Z,66.06
2018-06-13T18:22:06.427Z,65.15
2018-06-13T18:24:34.018Z,65.21
2018-06-13T18:27:01.521Z,65.41
2018-06-13T18:29:29.043Z,65.31
2018-06-13T18:31:56.565Z,65.19
2018-06-13T18:34:24.126Z,64.82
2018-06-13T18:36:51.670Z,65.50
2018-06-13T18:39:19.182Z,64.74
2018-06-13T18:41:46.718Z,64.69
2018-06-13T18:44:14.238Z,64.39
2018-06-13T18:46:41.774Z,64.78
2018-06-13T18:49:09.302Z,64.12
2018-06-13T18:51:36.827Z,64.10
2018-06-13T18:54:04.483Z,64.10
2018-06-13T18:56:32.004Z,64.27
2018-06-13T18:58:59.563Z,64.65
2018-06-13T19:01:27.095Z,64.97
2018-06-13T19:03:54.678Z,64.87
2018-06-13T19:06:22.199Z,64.29
2018-06-13T19:08:49.718Z,64.42
2018-06-13T19:11:17.373Z,63.85
2018-06-13T19:13:44.806Z,63.86
2018-06-13T19:16:12.333Z,64.09
2018-06-13T19:18:39.870Z,64.53
2018-06-13T19:21:07.383Z,64.16
2018-06-13T19:23:34.934Z,63.94
2018-06-13T19:26:02.465Z,64.02
2018-06-13T19:28:29.990Z,63.75
2018-06-13T19:30:57.527Z,63.98
2018-06-13T19:33:25.138Z,63.66
2018-06-13T19:35:52.682Z,63.49
2018-06-13T19:38:20.202Z,63.80
2018-06-13T19:40:47.764Z,63.67
2018-06-13T19:43:20.902Z,63.79
2018-06-13T19:45:48.410Z,63.46
2018-06-13T19:48:21.537Z,63.48
2018-06-13T19:50:49.066Z,63.44
2018-06-13T19:53:22.429Z,63.13
2018-06-13T19:56:09.730Z,63.05
2018-06-13T19:58:38.108Z,62.93
2018-06-13T20:01:05.950Z,62.90
2018-06-13T20:03:39.150Z,62.90
2018-06-13T20:06:06.766Z,63.45
2018-06-13T20:08:34.422Z,63.17
2018-06-13T20:11:02.176Z,63.08
2018-06-13T20:13:35.306Z,62.76
2018-06-13T20:16:08.479Z,62.68
2018-06-13T20:18:41.645Z,62.77
2018-06-13T20:21:10.168Z,62.84
2018-06-13T20:23:37.957Z,62.80
2018-06-13T20:26:10.917Z,62.76
2018-06-13T20:28:43.878Z,62.61
2018-06-13T20:31:18.152Z,62.93
2018-06-13T20:33:45.702Z,62.89
2018-06-13T20:36:13.248Z,62.55
2018-06-13T20:38:40.750Z,62.67
2018-06-13T20:41:08.346Z,62.59
2018-06-13T20:43:35.886Z,62.72
2018-06-13T20:46:03.466Z,62.80
2018-06-13T20:48:31.007Z,62.78
2018-06-13T20:50:58.583Z,62.64
2018-06-13T20:53:26.106Z,62.61
2018-06-13T20:55:53.618Z,62.59
2018-06-13T20:58:21.158Z,62.38
2018-06-13T21:00:48.725Z,62.48
2018-06-13T21:03:16.243Z,62.31
2018-06-13T21:05:43.779Z,62.41
2018-06-13T21:08:11.342Z,62.44
2018-06-13T21:10:38.851Z,62.44
2018-06-13T21:13:06.390Z,62.18
2018-06-13T21:15:33.910Z,62.28
2018-06-13T21:18:01.463Z,62.47
2018-06-13T21:20:29.022Z,62.60
2018-06-13T21:22:56.556Z,62.91
2018-06-13T21:25:24.126Z,62.37
2018-06-13T21:27:51.646Z,62.79
2018-06-13T21:30:19.157Z,62.39
2018-06-13T21:32:46.695Z,62.33
2018-06-13T21:35:14.223Z,62.17
2018-06-13T21:37:41.774Z,61.94
2018-06-13T21:40:09.312Z,62.36
2018-06-13T21:42:36.845Z,62.56
2018-06-13T21:45:04.402Z,62.31
2018-06-13T21:47:31.914Z,62.07
2018-06-13T21:49:59.478Z,62.06
2018-06-13T21:52:27.014Z,62.20
2018-06-13T21:54:54.601Z,62.27
2018-06-13T21:57:22.158Z,62.31
2018-06-13T21:59:49.666Z,62.14
2018-06-13T22:02:17.239Z,61.95
2018-06-13T22:04:44.759Z,61.90
2018-06-13T22:07:12.319Z,61.86
2018-06-13T22:09:39.863Z,61.79
2018-06-13T22:12:07.401Z,61.66
2018-06-13T22:14:34.960Z,61.92
2018-06-13T22:17:02.522Z,61.63
2018-06-13T22:19:30.035Z,61.38
2018-06-13T22:21:57.587Z,61.06
2018-06-13T22:24:25.102Z,60.89
2018-06-13T22:26:52.666Z,61.07
2018-06-13T22:29:20.195Z,61.43
2018-06-13T22:31:47.710Z,61.11
2018-06-13T22:34:15.238Z,61.10
2018-06-13T22:36:42.755Z,61.09
2018-06-13T22:39:11.911Z,61.08
2018-06-13T22:41:39.449Z,61.13
2018-06-13T22:44:06.986Z,60.97
2018-06-13T22:46:34.530Z,61.18
2018-06-13T22:49:02.070Z,60.78
2018-06-13T22:51:29.658Z,61.31
2018-06-13T22:53:57.250Z,61.29
2018-06-13T22:56:24.869Z,61.00
2018-06-13T22:58:52.409Z,61.21
2018-06-13T23:01:19.950Z,60.92
2018-06-13T23:03:47.503Z,61.04
2018-06-13T23:06:15.027Z,61.19
2018-06-13T23:08:42.538Z,60.88
2018-06-13T23:11:10.079Z,60.88
2018-06-13T23:13:37.619Z,60.82
2018-06-13T23:16:05.207Z,61.23
2018-06-13T23:18:32.783Z,61.00
2018-06-13T23:21:00.310Z,61.24
2018-06-13T23:23:27.829Z,61.15
2018-06-13T23:25:56.104Z,61.05
2018-06-13T23:28:23.675Z,60.77
2018-06-13T23:30:51.186Z,60.97
2018-06-13T23:33:18.894Z,60.87
2018-06-13T23:35:46.410Z,61.10
2018-06-13T23:38:14.358Z,60.73
2018-06-13T23:40:41.910Z,61.09
2018-06-13T23:43:09.426Z,60.97
2018-06-13T23:45:36.962Z,60.63
2018-06-13T23:48:04.543Z,60.79
2018-06-13T23:50:32.062Z,60.68
2018-06-13T23:52:59.843Z,60.69
2018-06-13T23:55:27.410Z,60.76
2018-06-13T23:57:54.902Z,60.83
